Time;durP1;ratioP1;P1;durP2;ratioP2;P2;SDS_P1;SDS_P2;PMS_P1;PMS_P2;Temp;Humidity;BMP_temperature;BMP_pressure;BME280_temperature;BME280_humidity;BME280_pressure;Samples;Min_cycle;Max_cycle;Signal;HPM_P1;HPM_P2
2022/07/07 00:01:43;;;;;;;4.70;2.55;;;;;;;18.80;67.34;100190.91;6231879;28;20095;-78
2022/07/07 00:04:44;;;;;;;3.17;2.60;;;;;;;18.73;68.05;100196.72;6215466;28;20044;-78
2022/07/07 00:07:45;;;;;;;2.93;2.60;;;;;;;18.71;68.56;100196.03;6231560;28;20045;-77
2022/07/07 00:10:46;;;;;;;3.90;2.63;;;;;;;18.84;67.97;100198.44;6215530;28;20404;-87
2022/07/07 00:13:47;;;;;;;2.70;2.20;;;;;;;18.81;68.00;100196.06;6231417;28;20041;-78
2022/07/07 00:16:50;;;;;;;2.60;2.40;;;;;;;18.92;68.01;100200.31;6214788;28;20045;-77
2022/07/07 00:19:50;;;;;;;3.65;2.67;;;;;;;19.22;65.93;100193.13;6215097;28;20041;-86
2022/07/07 00:22:51;;;;;;;3.00;2.57;;;;;;;19.20;66.36;100185.34;6214771;28;20048;-77
2022/07/07 00:25:52;;;;;;;3.38;2.47;;;;;;;19.00;67.54;100199.63;6248707;28;20041;-87
2022/07/07 00:28:55;;;;;;;3.70;2.65;;;;;;;19.08;67.31;100197.06;6231020;28;20045;-78
2022/07/07 00:31:56;;;;;;;2.60;2.40;;;;;;;19.10;67.41;100193.31;6214563;28;20034;-86
2022/07/07 00:34:59;;;;;;;3.00;2.55;;;;;;;19.11;67.97;100194.16;6230852;28;20041;-78
2022/07/07 00:38:00;;;;;;;4.05;2.35;;;;;;;19.15;67.62;100184.09;6230890;28;20095;-86
2022/07/07 00:41:01;;;;;;;3.07;2.63;;;;;;;19.17;67.83;100185.66;6248373;28;20407;-77
2022/07/07 00:44:03;;;;;;;2.42;2.20;;;;;;;19.21;67.73;100183.50;6230766;28;20042;-77
2022/07/07 00:47:05;;;;;;;6.47;2.47;;;;;;;19.21;68.26;100176.44;6214355;28;20052;-86
2022/07/07 00:50:08;;;;;;;5.03;2.70;;;;;;;19.19;68.08;100177.53;6248086;28;20487;-77
2022/07/07 00:53:11;;;;;;;8.13;2.55;;;;;;;19.21;68.99;100186.16;6248107;28;20093;-86
2022/07/07 00:56:11;;;;;;;2.95;2.63;;;;;;;19.22;68.10;100182.56;6213892;28;20046;-86
2022/07/07 00:59:13;;;;;;;4.63;2.60;;;;;;;19.20;69.37;100187.97;6229618;28;20080;-86
2022/07/07 01:02:14;;;;;;;12.48;3.20;;;;;;;18.82;71.16;100178.38;6246523;28;20041;-86
2022/07/07 01:05:16;;;;;;;4.57;2.90;;;;;;;18.85;72.33;100178.94;6214013;28;20041;-86
2022/07/07 01:08:17;;;;;;;3.97;2.90;;;;;;;18.78;72.36;100171.69;6230297;28;20274;-78
2022/07/07 01:11:18;;;;;;;5.97;2.70;;;;;;;18.77;71.89;100181.41;6229939;28;20060;-86
2022/07/07 01:14:20;;;;;;;3.17;2.60;;;;;;;18.66;72.53;100176.31;6213690;28;20056;-77
2022/07/07 01:17:23;;;;;;;4.45;3.10;;;;;;;18.49;73.68;100177.84;6247456;28;20068;-78
2022/07/07 01:20:26;;;;;;;3.00;2.70;;;;;;;18.60;74.45;100183.00;6213438;28;20049;-86
2022/07/07 01:23:27;;;;;;;4.07;2.92;;;;;;;18.55;74.19;100185.22;6247662;28;20048;-85
2022/07/07 01:26:29;;;;;;;3.70;2.43;;;;;;;18.40;74.08;100179.53;6229991;28;20049;-86
2022/07/07 01:29:37;;;;;;;3.78;2.72;;;;;;;18.27;75.08;100182.47;6229825;28;20046;-85
2022/07/07 01:32:38;;;;;;;7.28;2.60;;;;;;;18.36;74.49;100177.34;6248012;28;20048;-86
2022/07/07 01:35:38;;;;;;;7.17;2.50;;;;;;;18.46;73.73;100178.16;6229648;28;20057;-86
2022/07/07 01:38:39;;;;;;;3.07;2.70;;;;;;;18.49;72.76;100172.56;6229674;28;20073;-85
2022/07/07 01:41:40;;;;;;;5.13;2.75;;;;;;;18.49;72.93;100178.72;6213181;28;20053;-86
2022/07/07 01:44:42;;;;;;;3.13;2.50;;;;;;;18.45;73.11;100166.75;6229532;28;20407;-85
2022/07/07 01:47:42;;;;;;;4.95;3.00;;;;;;;18.48;71.75;100171.75;6229433;28;20050;-77
2022/07/07 01:50:43;;;;;;;3.67;2.70;;;;;;;18.42;71.79;100164.38;6229448;28;20041;-78
2022/07/07 01:53:44;;;;;;;4.55;2.90;;;;;;;18.39;72.54;100162.03;6213078;28;20037;-85
2022/07/07 01:56:45;;;;;;;6.20;2.60;;;;;;;18.36;72.26;100159.66;6213635;28;20143;-86
2022/07/07 01:59:47;;;;;;;3.72;2.67;;;;;;;18.29;72.35;100169.97;6229487;28;20054;-86
2022/07/07 02:02:48;;;;;;;3.83;2.53;;;;;;;18.21;73.01;100161.09;6196870;28;20503;-86
2022/07/07 02:05:51;;;;;;;4.15;2.70;;;;;;;18.11;74.23;100154.00;6229281;28;20073;-77
2022/07/07 02:08:52;;;;;;;3.85;2.78;;;;;;;18.09;74.75;100158.59;6229684;28;20395;-85
2022/07/07 02:11:53;;;;;;;5.50;2.90;;;;;;;17.98;75.15;100171.94;6234142;28;20037;-85
2022/07/07 02:14:54;;;;;;;2.88;2.58;;;;;;;17.89;74.58;100180.66;6217600;28;20796;-77
2022/07/07 02:17:56;;;;;;;3.00;2.40;;;;;;;17.84;76.82;100169.69;6234119;28;20038;-77
2022/07/07 02:20:57;;;;;;;6.50;2.47;;;;;;;17.81;76.20;100170.78;6233849;28;20075;-85
2022/07/07 02:23:58;;;;;;;3.33;2.50;;;;;;;17.83;75.04;100171.50;6233673;28;20045;-85
2022/07/07 02:26:59;;;;;;;3.03;2.72;;;;;;;17.80;74.27;100176.19;6251257;28;20132;-77
2022/07/07 02:29:59;;;;;;;6.60;2.80;;;;;;;17.68;75.37;100178.94;6217414;28;20052;-85
2022/07/07 02:33:00;;;;;;;4.05;2.63;;;;;;;17.49;76.68;100184.19;6233852;28;20400;-85
2022/07/07 02:36:05;;;;;;;2.83;2.47;;;;;;;17.64;75.85;100187.28;6217299;28;20045;-85
2022/07/07 02:39:07;;;;;;;2.42;2.22;;;;;;;17.64;76.45;100185.47;6251154;28;20095;-85
2022/07/07 02:42:08;;;;;;;4.00;2.70;;;;;;;17.48;76.91;100188.63;6233461;28;20566;-77
2022/07/07 02:45:09;;;;;;;2.95;2.30;;;;;;;17.49;76.59;100186.81;6233309;28;20049;-85
2022/07/07 02:48:13;;;;;;;3.38;2.60;;;;;;;17.52;76.30;100176.84;6233627;28;20107;-85
2022/07/07 02:51:14;;;;;;;3.72;2.50;;;;;;;17.50;77.39;100178.78;6250911;28;20502;-85
2022/07/07 02:54:17;;;;;;;2.95;2.60;;;;;;;17.64;75.42;100179.34;6233365;28;20047;-77
2022/07/07 02:57:20;;;;;;;5.93;2.63;;;;;;;17.70;74.72;100174.34;6233083;28;20041;-78
2022/07/07 03:00:21;;;;;;;2.97;2.67;;;;;;;17.77;74.48;100172.03;6233063;28;20498;-85
2022/07/07 03:03:22;;;;;;;2.88;2.58;;;;;;;17.78;74.48;100167.56;6216523;28;20054;-86
2022/07/07 03:06:23;;;;;;;3.13;2.50;;;;;;;17.78;74.89;100170.22;6250656;28;20050;-84
2022/07/07 03:09:24;;;;;;;5.03;2.83;;;;;;;17.75;75.95;100173.13;6200248;28;20057;-78
2022/07/07 03:12:25;;;;;;;7.75;2.47;;;;;;;17.74;74.98;100164.38;6250277;28;20044;-85
2022/07/07 03:15:26;;;;;;;4.30;2.30;;;;;;;17.73;75.75;100165.38;6232803;28;20069;-77
2022/07/07 03:18:27;;;;;;;4.20;2.38;;;;;;;17.61;76.27;100175.19;6216349;28;20281;-85
2022/07/07 03:21:28;;;;;;;4.63;2.67;;;;;;;17.60;76.79;100178.78;6249857;28;20046;-86
2022/07/07 03:24:31;;;;;;;3.70;2.45;;;;;;;17.70;76.74;100184.91;6216598;28;20605;-78
2022/07/07 03:27:32;;;;;;;3.38;2.40;;;;;;;17.57;77.10;100183.53;6200520;28;20124;-78
2022/07/07 03:30:33;;;;;;;4.67;3.00;;;;;;;17.69;76.93;100193.81;6232881;28;20530;-85
2022/07/07 03:33:33;;;;;;;3.10;2.55;;;;;;;17.54;77.86;100197.78;6233155;28;20041;-85
2022/07/07 03:36:34;;;;;;;7.10;2.60;;;;;;;17.73;77.03;100197.03;6232300;28;20041;-78
2022/07/07 03:39:35;;;;;;;5.90;2.70;;;;;;;17.97;75.32;100201.94;6199570;28;20395;-86
2022/07/07 03:42:36;;;;;;;6.07;2.80;;;;;;;17.73;76.93;100202.31;6232493;28;20402;-86
2022/07/07 03:45:37;;;;;;;3.55;2.35;;;;;;;17.92;76.37;100204.16;6249762;28;20134;-86
2022/07/07 03:48:38;;;;;;;3.42;2.53;;;;;;;17.94;75.14;100196.13;6215838;28;20473;-77
2022/07/07 03:51:39;;;;;;;2.70;2.30;;;;;;;17.90;75.61;100200.81;6215253;28;20079;-76
2022/07/07 03:54:40;;;;;;;7.82;3.00;;;;;;;17.81;77.75;100189.25;6215551;28;20507;-84
2022/07/07 03:57:41;;;;;;;3.97;2.42;;;;;;;17.87;76.77;100182.59;6231573;28;20037;-78
2022/07/07 04:00:44;;;;;;;9.10;2.50;;;;;;;17.90;77.40;100183.19;6215455;28;20554;-77
2022/07/07 04:03:45;;;;;;;3.00;2.67;;;;;;;18.03;76.90;100184.72;6215750;28;20044;-85
2022/07/07 04:06:46;;;;;;;3.95;2.70;;;;;;;18.06;75.26;100180.00;6215145;28;20043;-77
2022/07/07 04:09:47;;;;;;;2.95;2.47;;;;;;;18.06;75.45;100181.81;6215150;28;20038;-86
2022/07/07 04:12:48;;;;;;;3.50;2.40;;;;;;;17.94;76.88;100177.63;6248994;28;20051;-77
2022/07/07 04:15:49;;;;;;;6.72;2.70;;;;;;;17.75;77.33;100173.97;6214900;28;20294;-77
2022/07/07 04:18:50;;;;;;;3.40;2.50;;;;;;;17.77;77.22;100172.03;6215441;28;20046;-86
2022/07/07 04:21:50;;;;;;;2.75;2.53;;;;;;;17.73;77.87;100168.00;6231009;28;20551;-78
2022/07/07 04:24:52;;;;;;;5.45;2.55;;;;;;;17.82;77.44;100177.72;6247589;28;20044;-87
2022/07/07 04:27:52;;;;;;;5.50;2.58;;;;;;;17.84;77.71;100170.53;6260272;28;20501;-85
2022/07/07 04:30:53;;;;;;;4.18;2.83;;;;;;;17.87;77.00;100175.56;6250697;28;20052;-77
2022/07/07 04:33:54;;;;;;;5.35;2.92;;;;;;;18.02;77.83;100177.78;6222079;28;20118;-85
2022/07/07 04:36:55;;;;;;;4.00;2.47;;;;;;;18.01;76.59;100169.00;6244152;28;20078;-86
2022/07/07 04:39:56;;;;;;;3.78;2.80;;;;;;;18.03;77.85;100174.97;6263752;28;20430;-86
2022/07/07 04:42:57;;;;;;;10.95;2.58;;;;;;;18.16;76.77;100168.59;6263469;28;20066;-77
2022/07/07 04:45:59;;;;;;;4.50;2.70;;;;;;;18.38;76.06;100178.84;6297430;28;20044;-87
2022/07/07 04:49:00;;;;;;;3.17;2.73;;;;;;;18.46;75.55;100176.34;6280033;28;20490;-86
2022/07/07 04:52:04;;;;;;;2.63;2.42;;;;;;;18.38;77.03;100175.38;6297776;28;20119;-78
2022/07/07 04:55:06;;;;;;;8.05;2.53;;;;;;;18.19;77.68;100176.25;6279665;28;20128;-86
2022/07/07 04:58:06;;;;;;;6.38;3.15;;;;;;;18.33;77.92;100181.94;6261842;28;20106;-77
2022/07/07 05:01:09;;;;;;;5.05;2.38;;;;;;;18.52;77.32;100181.06;6222301;28;20495;-86
2022/07/07 05:04:09;;;;;;;3.20;2.60;;;;;;;18.69;74.69;100174.19;6254602;28;20052;-77
2022/07/07 05:07:10;;;;;;;3.88;2.83;;;;;;;18.67;74.70;100184.09;6221928;28;20080;-77
2022/07/07 05:10:11;;;;;;;4.32;2.75;;;;;;;18.75;73.80;100178.09;6221850;28;20048;-76
2022/07/07 05:13:12;;;;;;;4.55;2.60;;;;;;;18.72;75.36;100192.44;6255039;28;20099;-84
2022/07/07 05:16:13;;;;;;;5.78;3.38;;;;;;;18.95;73.13;100191.28;6238070;28;20048;-87
2022/07/07 05:19:14;;;;;;;3.80;2.93;;;;;;;19.02;72.70;100187.91;6254341;28;20095;-84
2022/07/07 05:22:14;;;;;;;3.58;2.85;;;;;;;19.16;71.80;100185.78;6238197;28;20097;-83
2022/07/07 05:25:15;;;;;;;4.20;2.88;;;;;;;19.18;70.96;100184.66;6262493;28;20394;-82
2022/07/07 05:28:16;;;;;;;4.45;2.88;;;;;;;19.18;72.04;100187.28;6262568;28;20486;-76
2022/07/07 05:31:17;;;;;;;2.97;2.58;;;;;;;19.31;71.39;100194.88;6244423;28;20055;-86
2022/07/07 05:34:17;;;;;;;5.95;2.90;;;;;;;19.29;70.27;100194.19;6272553;28;20521;-85
2022/07/07 05:37:18;;;;;;;3.03;2.73;;;;;;;19.42;70.45;100189.41;6238253;28;20049;-76
2022/07/07 05:40:19;;;;;;;5.35;2.40;;;;;;;19.54;69.61;100192.69;6254068;28;20041;-85
2022/07/07 05:43:22;;;;;;;4.17;2.43;;;;;;;19.62;68.97;100190.16;6221094;28;20037;-84
2022/07/07 05:46:23;;;;;;;4.57;2.70;;;;;;;19.68;68.92;100192.19;6237846;28;20060;-83
2022/07/07 05:49:24;;;;;;;4.67;2.83;;;;;;;19.83;68.35;100189.03;6234813;28;20053;-78
2022/07/07 05:52:26;;;;;;;3.83;2.63;;;;;;;19.95;68.84;100200.25;6262175;28;20032;-83
2022/07/07 05:55:26;;;;;;;;;;;;;;;20.12;67.68;100197.59;6262802;28;20044;-86
2022/07/07 05:58:27;;;;;;;4.75;2.42;;;;;;;20.28;67.83;100198.72;6278513;28;19927;-87
2022/07/07 06:01:28;;;;;;;4.77;2.43;;;;;;;20.50;66.84;100192.94;6272326;28;20037;-77
2022/07/07 06:04:29;;;;;;;5.57;2.80;;;;;;;20.58;66.03;100200.16;6226204;28;20145;-87
2022/07/07 06:07:29;;;;;;;8.27;2.90;;;;;;;20.65;66.12;100209.16;6238240;28;20446;-88
2022/07/07 06:10:32;;;;;;;4.67;2.47;;;;;;;20.69;64.68;100215.81;6259357;28;20040;-86
2022/07/07 06:13:33;;;;;;;3.72;2.50;;;;;;;20.75;63.60;100208.22;6263903;28;20044;-76
2022/07/07 06:16:40;;;;;;;3.33;2.53;;;;;;;20.82;63.84;100209.28;6245804;28;20041;-78
2022/07/07 06:19:41;;;;;;;4.97;2.90;;;;;;;21.01;62.96;100203.75;6280829;28;20037;-86
2022/07/07 06:22:44;;;;;;;3.77;2.60;;;;;;;21.14;62.16;100200.66;6279295;28;20539;-83
2022/07/07 06:25:45;;;;;;;3.13;2.30;;;;;;;21.16;60.55;100200.50;6246319;28;20048;-77
2022/07/07 06:28:47;;;;;;;3.37;2.40;;;;;;;21.25;60.84;100199.53;6279007;28;20044;-85
2022/07/07 06:31:48;;;;;;;4.32;2.58;;;;;;;21.41;62.91;100202.25;6262461;28;20049;-77
2022/07/07 06:34:49;;;;;;;3.70;2.58;;;;;;;21.69;61.50;100202.88;6261954;28;20056;-79
2022/07/07 06:37:52;;;;;;;8.13;2.53;;;;;;;21.84;59.39;100205.72;6262463;28;20059;-85
2022/07/07 06:40:59;;;;;;;8.85;2.70;;;;;;;22.01;59.17;100193.31;6278262;28;20123;-77
2022/07/07 06:44:00;;;;;;;4.40;2.50;;;;;;;22.23;58.76;100199.81;6281561;28;20067;-85
2022/07/07 06:47:03;;;;;;;3.03;2.33;;;;;;;22.50;56.62;100200.47;6260887;28;20080;-77
2022/07/07 06:50:05;;;;;;;4.00;2.50;;;;;;;22.85;57.35;100203.75;6256279;28;20044;-86
2022/07/07 06:53:07;;;;;;;3.65;2.40;;;;;;;23.05;55.90;100196.25;6291122;28;20045;-84
2022/07/07 06:56:08;;;;;;;2.97;2.60;;;;;;;22.73;56.75;100203.28;6283002;28;20187;-77
2022/07/07 06:59:09;;;;;;;3.17;2.15;;;;;;;22.98;54.29;100187.25;6282996;28;20410;-87
2022/07/07 07:02:10;;;;;;;8.07;2.80;;;;;;;22.44;56.71;100194.00;6258722;28;20037;-77
2022/07/07 07:05:11;;;;;;;6.90;2.50;;;;;;;22.72;55.89;100197.13;6287556;28;20049;-78
2022/07/07 07:08:14;;;;;;;4.83;2.50;;;;;;;22.97;56.13;100191.75;6226717;28;20041;-77
2022/07/07 07:11:15;;;;;;;8.02;2.50;;;;;;;22.98;54.84;100201.41;6258536;28;20278;-87
2022/07/07 07:14:16;;;;;;;8.53;2.50;;;;;;;23.39;53.65;100190.66;6277166;28;20067;-87
2022/07/07 07:17:17;;;;;;;6.40;2.50;;;;;;;23.59;54.43;100191.03;6295729;28;20044;-87
2022/07/07 07:20:18;;;;;;;4.05;2.25;;;;;;;23.57;51.23;100186.88;6241433;28;20045;-87
2022/07/07 07:23:19;;;;;;;;;;;;;;;23.78;51.22;100186.28;6258554;28;20479;-77
2022/07/07 07:26:20;;;;;;;3.67;2.45;;;;;;;24.03;52.44;100182.47;6291593;28;19920;-78
2022/07/07 07:29:22;;;;;;;5.60;2.30;;;;;;;24.17;50.08;100185.34;6269892;28;20052;-77
2022/07/07 07:32:23;;;;;;;3.80;2.53;;;;;;;24.11;50.49;100184.22;6299567;28;20376;-79
2022/07/07 07:35:24;;;;;;;3.00;2.20;;;;;;;24.25;51.60;100190.59;6248750;28;20128;-85
2022/07/07 07:38:25;;;;;;;3.83;2.20;;;;;;;24.73;48.84;100192.03;6245044;28;20403;-77
2022/07/07 07:41:26;;;;;;;3.20;2.35;;;;;;;24.94;48.71;100191.31;6275265;28;20047;-77
2022/07/07 07:47:47;;;;;;;3.80;2.40;;;;;;;24.76;48.19;100193.50;6245686;28;20639;-76
2022/07/07 07:50:50;;;;;;;6.57;2.42;;;;;;;25.21;45.26;100194.34;6257198;28;20458;-77
2022/07/07 07:53:50;;;;;;;3.63;1.88;;;;;;;24.97;43.62;100195.44;6257140;28;20047;-76
2022/07/07 07:56:51;;;;;;;5.33;2.20;;;;;;;24.68;44.40;100188.25;6257007;28;20049;-84
2022/07/07 07:59:52;;;;;;;6.53;2.27;;;;;;;25.00;43.33;100191.56;6229521;28;20525;-85
2022/07/07 08:02:53;;;;;;;3.77;1.90;;;;;;;25.40;43.94;100176.09;6281525;28;20033;-77
2022/07/07 08:05:54;;;;;;;9.07;1.92;;;;;;;25.70;42.88;100175.00;6299220;28;20321;-85
2022/07/07 08:08:55;;;;;;;6.68;1.75;;;;;;;25.09;40.62;100174.44;6265023;28;20036;-87
2022/07/07 08:11:56;;;;;;;5.50;2.03;;;;;;;25.84;39.97;100181.31;6281737;28;20115;-77
2022/07/07 08:14:56;;;;;;;2.70;1.97;;;;;;;25.94;40.58;100175.66;6264999;28;20277;-77
2022/07/07 08:17:57;;;;;;;3.22;2.13;;;;;;;25.71;41.31;100181.16;6275724;28;20041;-78
2022/07/07 08:20:58;;;;;;;5.10;2.08;;;;;;;26.08;44.84;100173.97;6207984;28;20579;-85
2022/07/07 08:23:59;;;;;;;2.72;1.75;;;;;;;26.40;39.98;100174.41;6260563;28;20079;-78
2022/07/07 08:27:00;;;;;;;2.10;1.70;;;;;;;26.12;40.82;100176.06;6260580;28;20052;-87
2022/07/07 08:30:01;;;;;;;1.80;1.70;;;;;;;26.11;40.41;100168.25;6234134;28;20101;-85
2022/07/07 08:33:02;;;;;;;2.97;2.08;;;;;;;26.14;40.35;100170.50;6244871;28;20036;-78
2022/07/07 08:36:03;;;;;;;;;;;;;;;26.65;42.49;100173.00;6275455;28;20664;-86
2022/07/07 08:39:04;;;;;;;3.07;1.80;;;;;;;26.19;40.34;100170.78;6246312;28;19927;-77
2022/07/07 08:42:08;;;;;;;2.55;1.88;;;;;;;25.96;40.03;100164.78;6265544;28;20041;-86
2022/07/07 08:45:13;;;;;;;3.17;1.85;;;;;;;26.73;39.58;100172.03;6277237;28;20071;-76
2022/07/07 08:48:14;;;;;;;4.03;1.55;;;;;;;26.68;39.35;100171.78;6261523;28;20045;-86
2022/07/07 08:51:15;;;;;;;3.30;1.45;;;;;;;26.37;38.22;100169.47;6264899;28;20491;-76
2022/07/07 08:54:16;;;;;;;2.45;1.58;;;;;;;26.49;37.44;100175.94;6255031;28;20047;-86
2022/07/07 08:57:18;;;;;;;3.97;1.65;;;;;;;26.27;37.39;100175.13;6272623;28;20043;-86
2022/07/07 09:00:20;;;;;;;4.00;1.60;;;;;;;25.86;36.88;100175.75;6254866;28;20495;-76
2022/07/07 09:03:20;;;;;;;10.48;2.10;;;;;;;26.14;36.77;100171.34;6279758;28;20051;-77
2022/07/07 09:06:21;;;;;;;5.90;1.60;;;;;;;26.32;36.74;100165.53;6280063;28;20045;-75
2022/07/07 09:09:45;;;;;;;5.63;1.60;;;;;;;26.50;38.04;100167.72;6276761;28;20037;-84
2022/07/07 09:12:46;;;;;;;2.60;1.70;;;;;;;26.28;37.45;100168.78;6261730;28;20319;-76
2022/07/07 09:15:50;;;;;;;3.80;1.77;;;;;;;26.50;37.54;100167.72;6238126;28;20460;-87
2022/07/07 09:18:50;;;;;;;2.53;1.50;;;;;;;27.18;35.57;100159.09;6271686;28;20047;-76
2022/07/07 09:21:51;;;;;;;2.63;1.73;;;;;;;27.63;35.33;100166.66;6237962;28;20037;-84
2022/07/07 09:24:56;;;;;;;3.03;1.50;;;;;;;27.21;34.88;100171.25;6246003;28;20472;-88
2022/07/07 09:28:03;;;;;;;2.13;1.58;;;;;;;27.97;31.52;100168.41;6241779;28;20102;-87
2022/07/07 09:31:04;;;;;;;4.25;1.50;;;;;;;27.58;34.77;100171.81;6269403;28;20483;-86
2022/07/07 09:34:12;;;;;;;4.90;1.48;;;;;;;27.62;33.11;100165.84;6239831;28;20414;-76
2022/07/07 09:40:32;;;;;;;2.13;1.40;;;;;;;26.61;33.97;100168.25;6281574;28;20475;-85
2022/07/07 09:43:35;;;;;;;1.48;1.38;;;;;;;27.61;33.43;100161.50;6262258;28;20052;-86
2022/07/07 09:46:36;;;;;;;8.70;1.60;;;;;;;28.07;33.47;100157.28;6279034;28;20082;-86
2022/07/07 09:49:42;;;;;;;4.50;1.50;;;;;;;27.66;31.39;100150.19;6246166;28;20056;-77
2022/07/07 09:52:47;;;;;;;2.50;1.30;;;;;;;28.37;30.88;100151.47;6287092;28;20135;-85
2022/07/07 09:56:00;;;;;;;2.15;1.50;;;;;;;27.47;32.58;100147.25;6263766;28;20475;-76
2022/07/07 09:59:06;;;;;;;5.95;1.73;;;;;;;27.13;34.13;100146.25;6271639;28;20137;-86
2022/07/07 10:02:26;;;;;;;2.95;1.70;;;;;;;26.59;36.06;100143.53;6254202;28;20358;-85
2022/07/07 10:05:28;;;;;;;2.58;1.60;;;;;;;27.06;32.39;100156.13;6253870;28;20077;-78
2022/07/07 10:08:31;;;;;;;3.97;1.50;;;;;;;27.14;34.76;100149.78;6271929;28;20047;-78
2022/07/07 10:11:53;;;;;;;8.60;1.40;;;;;;;27.24;32.91;100149.44;6271616;28;20033;-77
2022/07/07 10:14:59;;;;;;;2.60;1.40;;;;;;;27.31;30.63;100151.13;6271676;28;20049;-78
2022/07/07 10:18:01;;;;;;;6.57;1.40;;;;;;;28.08;30.26;100150.88;6254133;28;20102;-77
2022/07/07 10:21:03;;;;;;;2.70;1.05;;;;;;;28.12;29.92;100139.50;6237312;28;20045;-85
2022/07/07 10:24:05;;;;;;;3.35;1.40;;;;;;;27.42;30.14;100138.97;6239504;28;20048;-77
2022/07/07 10:27:07;;;;;;;4.85;1.30;;;;;;;27.71;31.98;100131.63;6266010;28;20075;-85
2022/07/07 10:30:09;;;;;;;1.83;1.35;;;;;;;27.20;31.27;100140.09;6256706;28;20033;-86
2022/07/07 10:33:10;;;;;;;4.28;1.20;;;;;;;28.11;29.92;100126.34;6258312;28;20499;-86
2022/07/07 10:36:11;;;;;;;2.15;1.13;;;;;;;27.32;30.98;100130.50;6275728;28;20084;-86
2022/07/07 10:39:13;;;;;;;4.47;1.52;;;;;;;26.83;32.34;100127.00;6241896;28;20095;-84
2022/07/07 10:42:14;;;;;;;6.80;1.50;;;;;;;26.39;33.59;100130.78;6276007;28;20045;-78
2022/07/07 10:45:17;;;;;;;2.78;1.60;;;;;;;26.42;33.12;100126.91;6280207;28;20037;-87
2022/07/07 10:48:45;;;;;;;2.83;1.65;;;;;;;26.45;35.86;100126.53;6278485;28;20037;-85
2022/07/07 10:51:54;;;;;;;2.70;1.50;;;;;;;26.40;32.04;100128.94;6277277;28;20071;-86
2022/07/07 10:55:02;;;;;;;2.17;1.40;;;;;;;27.45;31.45;100121.69;6257442;28;20040;-86
2022/07/07 10:58:03;;;;;;;1.95;1.30;;;;;;;26.97;30.83;100110.97;6275336;28;20064;-78
2022/07/07 11:01:13;;;;;;;5.10;1.30;;;;;;;27.10;30.31;100109.19;6258803;28;20040;-77
2022/07/07 11:04:48;;;;;;;2.17;1.30;;;;;;;26.49;31.51;100109.06;6241870;28;20037;-77
2022/07/07 11:07:55;;;;;;;2.05;1.50;;;;;;;26.62;30.79;100113.69;6257758;28;20045;-77
2022/07/07 11:10:56;;;;;;;3.38;1.17;;;;;;;26.18;29.23;100107.59;6291734;28;20064;-77
2022/07/07 11:14:04;;;;;;;2.92;1.25;;;;;;;26.03;31.87;100102.34;6216953;28;20055;-77
2022/07/07 11:17:05;;;;;;;4.55;1.50;;;;;;;27.03;31.28;100094.94;6246160;28;20056;-86
2022/07/07 11:20:15;;;;;;;2.05;1.20;;;;;;;27.02;29.24;100106.69;6248960;28;20049;-86
2022/07/07 11:23:16;;;;;;;1.17;1.08;;;;;;;27.84;30.16;100104.84;6265074;28;20048;-85
2022/07/07 11:26:23;;;;;;;3.65;1.20;;;;;;;27.45;29.95;100098.41;6299669;28;20119;-77
2022/07/07 11:29:24;;;;;;;2.85;1.25;;;;;;;26.97;30.51;100090.38;6281732;28;20384;-78
2022/07/07 11:32:36;;;;;;;1.30;1.20;;;;;;;26.90;29.30;100085.00;6258606;28;20049;-77
2022/07/07 11:35:40;;;;;;;2.58;1.30;;;;;;;27.59;28.86;100085.84;6256695;28;20033;-77
2022/07/07 11:38:42;;;;;;;4.15;1.40;;;;;;;28.11;27.47;100086.09;6267780;28;20040;-78
2022/07/07 11:41:45;;;;;;;1.42;1.00;;;;;;;27.56;27.33;100083.56;6281096;28;20036;-78
2022/07/07 11:44:48;;;;;;;3.47;1.13;;;;;;;28.06;25.33;100075.16;6281397;28;20041;-87
2022/07/07 11:47:59;;;;;;;3.03;1.00;;;;;;;27.06;26.23;100061.59;6299594;28;20049;-86
2022/07/07 11:51:26;;;;;;;4.93;1.20;;;;;;;27.55;31.52;100071.22;6247168;28;20046;-87
2022/07/07 11:54:27;;;;;;;4.35;1.10;;;;;;;27.80;25.63;100068.75;6230261;28;20064;-86
2022/07/07 11:57:33;;;;;;;2.38;0.90;;;;;;;28.23;28.24;100060.31;6213790;28;20072;-79
2022/07/07 12:00:36;;;;;;;2.00;0.90;;;;;;;28.22;25.63;100060.50;6246400;28;20114;-86
2022/07/07 12:03:37;;;;;;;0.88;0.80;;;;;;;28.49;23.87;100066.63;6246659;28;20079;-77
2022/07/07 12:06:40;;;;;;;2.10;1.00;;;;;;;28.86;23.50;100048.97;6213809;28;20057;-88
2022/07/07 12:09:47;;;;;;;7.28;1.20;;;;;;;29.53;27.72;100048.63;6216772;28;20136;-78
2022/07/07 12:13:02;;;;;;;2.08;0.90;;;;;;;29.44;24.89;100041.84;6189435;28;20476;-78
2022/07/07 12:16:03;;;;;;;3.65;1.02;;;;;;;29.25;25.27;100039.06;6205098;28;20089;-83
2022/07/07 12:19:05;;;;;;;8.85;1.15;;;;;;;29.65;26.90;100030.72;6205704;28;20504;-77
2022/07/07 12:22:06;;;;;;;3.13;1.50;;;;;;;28.56;24.86;100034.44;6216850;28;20049;-84
2022/07/07 12:25:09;;;;;;;;;;;;;;;28.75;24.46;100036.22;6244160;28;20051;-87
2022/07/07 12:28:10;;;;;;;2.50;1.10;;;;;;;29.96;24.12;100030.91;6271424;28;19958;-78
2022/07/07 12:31:18;;;;;;;1.85;1.00;;;;;;;29.86;23.30;100021.47;6255244;28;20425;-78
2022/07/07 12:34:23;;;;;;;3.33;1.20;;;;;;;29.10;23.58;100019.72;6280220;28;20060;-78
2022/07/07 12:37:41;;;;;;;1.42;0.93;;;;;;;29.22;24.50;100012.66;6285838;28;20041;-87
2022/07/07 12:40:56;;;;;;;3.75;1.00;;;;;;;29.46;23.81;100016.38;6255182;28;20037;-77
2022/07/07 12:44:12;;;;;;;2.55;1.00;;;;;;;29.03;25.61;100005.50;6238622;28;20510;-86
2022/07/07 12:47:16;;;;;;;1.27;1.02;;;;;;;29.85;24.92;100016.31;6255098;28;20051;-78
2022/07/07 12:50:18;;;;;;;2.55;0.90;;;;;;;28.92;24.46;100005.16;6271719;28;20085;-85
2022/07/07 12:53:19;;;;;;;1.35;0.80;;;;;;;28.25;24.72;99999.22;6254025;28;20048;-78
2022/07/07 12:56:20;;;;;;;2.30;1.00;;;;;;;28.50;24.58;100003.91;6222233;28;20123;-84
2022/07/07 12:59:21;;;;;;;6.18;1.00;;;;;;;28.81;25.16;100005.03;6254999;28;20493;-82
2022/07/07 13:02:22;;;;;;;1.98;1.00;;;;;;;29.27;24.03;100007.44;6272975;28;20045;-87
2022/07/07 13:05:23;;;;;;;6.25;0.88;;;;;;;27.79;24.75;99999.25;6238275;28;20066;-87
2022/07/07 13:08:25;;;;;;;4.00;1.17;;;;;;;27.64;26.34;99999.47;6254922;28;20045;-84
2022/07/07 13:11:26;;;;;;;1.25;0.90;;;;;;;27.82;25.29;99990.78;6272560;28;20079;-89
2022/07/07 13:14:28;;;;;;;5.43;1.00;;;;;;;28.08;25.77;99996.13;6263847;28;20033;-87
2022/07/07 13:17:31;;;;;;;1.50;0.77;;;;;;;27.58;26.13;99986.91;6239093;28;20067;-78
2022/07/07 13:20:32;;;;;;;1.58;1.00;;;;;;;27.54;27.46;99989.97;6292514;28;20037;-86
2022/07/07 13:23:36;;;;;;;4.82;0.93;;;;;;;26.99;25.37;99983.09;6278531;28;20043;-85
2022/07/07 13:26:36;;;;;;;0.82;0.80;;;;;;;27.52;25.83;99977.84;6245606;28;20150;-86
2022/07/07 13:29:42;;;;;;;1.55;0.93;;;;;;;27.99;26.07;99965.22;6262433;28;20036;-85
2022/07/07 13:32:43;;;;;;;1.98;1.00;;;;;;;28.03;25.98;99971.00;6296158;28;20484;-78
2022/07/07 13:35:45;;;;;;;2.45;0.95;;;;;;;28.32;26.09;99967.00;6278617;28;20047;-79
2022/07/07 13:38:47;;;;;;;1.08;0.90;;;;;;;28.62;26.63;99958.41;6261913;28;20422;-78
2022/07/07 13:41:49;;;;;;;5.38;1.00;;;;;;;28.61;24.07;99954.09;6262390;28;20064;-88
2022/07/07 13:44:50;;;;;;;1.02;0.77;;;;;;;27.99;24.45;99954.50;6297226;28;20501;-87
2022/07/07 13:47:51;;;;;;;0.75;0.70;;;;;;;27.72;24.88;99957.19;6278249;28;20052;-79
2022/07/07 13:50:53;;;;;;;2.55;1.00;;;;;;;27.58;25.63;99950.22;6278887;28;20077;-87
2022/07/07 13:53:56;;;;;;;2.25;0.98;;;;;;;27.95;25.47;99945.22;6296392;28;20090;-79
2022/07/07 13:56:57;;;;;;;2.30;0.95;;;;;;;27.93;24.71;99942.75;6246096;28;20078;-78
2022/07/07 14:00:05;;;;;;;1.75;1.08;;;;;;;27.54;25.53;99938.25;6245343;28;20361;-79
2022/07/07 14:03:06;;;;;;;9.68;1.05;;;;;;;27.49;26.62;99941.56;6278769;28;20033;-81
2022/07/07 14:06:07;;;;;;;4.35;1.05;;;;;;;27.87;25.86;99948.97;6266202;28;20052;-85
2022/07/07 14:09:07;;;;;;;1.13;1.00;;;;;;;27.50;25.25;99948.56;6250848;28;20578;-79
2022/07/07 14:12:09;;;;;;;1.83;1.10;;;;;;;27.70;25.48;99947.72;6284075;28;20040;-81
2022/07/07 14:15:10;;;;;;;3.10;0.90;;;;;;;27.85;25.28;99934.09;6267244;28;20071;-80
2022/07/07 14:18:11;;;;;;;3.60;1.10;;;;;;;27.50;24.93;99939.69;6250548;28;20109;-81